createdAt,value
2023-03-04T00:01:15.913Z,102.30
2023-03-04T00:03:42.926Z,103.95
2023-03-04T00:06:09.844Z,99.65
2023-03-04T00:08:36.434Z,101.78
2023-03-04T00:11:02.961Z,105.70
2023-03-04T00:13:29.534Z,109.57
2023-03-04T00:15:56.201Z,107.15
2023-03-04T00:18:22.944Z,108.65
2023-03-04T00:20:52.584Z,103.72
2023-03-04T00:23:19.125Z,103.45
2023-03-04T00:25:45.667Z,108.90
2023-03-04T00:28:12.220Z,101.47
2023-03-04T00:30:38.820Z,107.35
2023-03-04T00:33:05.376Z,110.50
2023-03-04T00:35:31.967Z,101.55
2023-03-04T00:37:58.511Z,104.43
2023-03-04T00:40:25.031Z,104.93
2023-03-04T00:42:51.571Z,114.45
2023-03-04T00:45:18.231Z,112.43
2023-03-04T00:47:44.838Z,111.60
2023-03-04T00:50:11.708Z,106.32
2023-03-04T00:52:38.326Z,111.13
2023-03-04T00:55:05.892Z,106.75
2023-03-04T00:57:32.426Z,110.75
2023-03-04T00:59:58.947Z,120.15
2023-03-04T01:02:25.537Z,113.20
2023-03-04T01:04:52.341Z,109.90
2023-03-04T01:07:18.927Z,105.80
2023-03-04T01:09:45.486Z,111.57
2023-03-04T01:12:12.321Z,112.13
2023-03-04T01:14:38.875Z,119.53
2023-03-04T01:17:05.650Z,113.00
2023-03-04T01:19:32.369Z,118.22
2023-03-04T01:21:58.927Z,121.70
2023-03-04T01:24:25.521Z,115.95
2023-03-04T01:26:52.107Z,125.90
2023-03-04T01:29:18.685Z,124.78
2023-03-04T01:31:45.247Z,126.78
2023-03-04T01:34:11.836Z,119.75
2023-03-04T01:36:38.375Z,120.88
2023-03-04T01:39:05.359Z,121.43
2023-03-04T01:41:32.563Z,127.68
2023-03-04T01:44:02.291Z,126.25
2023-03-04T01:46:30.102Z,128.73
2023-03-04T01:48:57.134Z,124.75
2023-03-04T01:51:24.417Z,129.30
2023-03-04T01:53:53.496Z,119.70
2023-03-04T01:56:24.855Z,128.60
2023-03-04T01:59:10.979Z,132.13
2023-03-04T02:01:38.629Z,136.60
2023-03-04T02:04:06.362Z,129.18
2023-03-04T02:06:33.009Z,136.30
2023-03-04T02:08:59.714Z,131.40
2023-03-04T02:11:26.805Z,132.88
2023-03-04T02:13:53.532Z,133.48
2023-03-04T02:16:20.147Z,134.93
2023-03-04T02:18:46.733Z,140.27
2023-03-04T02:21:33.143Z,134.40
2023-03-04T02:24:11.880Z,134.73
2023-03-04T02:26:41.411Z,144.85
2023-03-04T02:29:11.424Z,137.45
2023-03-04T02:31:40.344Z,135.57
2023-03-04T02:34:16.402Z,136.18
2023-03-04T02:36:44.227Z,140.45
2023-03-04T02:39:15.206Z,143.75
2023-03-04T02:41:44.364Z,143.25
2023-03-04T02:44:34.663Z,137.50
2023-03-04T02:47:02.240Z,135.55
2023-03-04T02:49:31.780Z,139.35
2023-03-04T02:52:07.127Z,137.20
2023-03-04T02:54:34.437Z,134.05
2023-03-04T02:57:04.528Z,135.48
2023-03-04T02:59:31.092Z,129.73
2023-03-04T03:01:58.061Z,133.95
2023-03-04T03:04:26.978Z,144.23
2023-03-04T03:06:53.627Z,140.27
2023-03-04T03:09:20.976Z,142.32
2023-03-04T03:11:47.583Z,133.52
2023-03-04T03:14:14.410Z,136.43
2023-03-04T03:16:41.012Z,140.20
2023-03-04T03:19:07.549Z,143.85
2023-03-04T03:21:34.095Z,140.68
2023-03-04T03:24:00.631Z,144.82
2023-03-04T03:26:27.173Z,145.05
2023-03-04T03:28:53.842Z,131.25
2023-03-04T03:31:20.417Z,146.93
2023-03-04T03:33:47.217Z,141.02
2023-03-04T03:36:14.016Z,157.30
2023-03-04T03:38:40.630Z,145.75
2023-03-04T03:41:07.152Z,143.73
2023-03-04T03:43:33.828Z,131.38
2023-03-04T03:46:00.394Z,143.73
2023-03-04T03:48:26.956Z,144.57
2023-03-04T03:50:53.663Z,146.30
2023-03-04T03:53:20.306Z,142.43
2023-03-04T03:55:46.804Z,141.77
2023-03-04T03:58:13.594Z,134.65
2023-03-04T04:00:40.137Z,149.13
2023-03-04T04:03:06.832Z,147.18
2023-03-04T04:05:33.422Z,136.25
2023-03-04T04:07:59.998Z,153.82
2023-03-04T04:10:26.521Z,142.63
2023-03-04T04:12:53.079Z,133.85
2023-03-04T04:15:19.786Z,150.20
2023-03-04T04:17:46.348Z,136.98
2023-03-04T04:20:12.960Z,138.48
2023-03-04T04:22:39.505Z,142.57
2023-03-04T04:25:08.845Z,151.57
2023-03-04T04:27:35.460Z,146.93
2023-03-04T04:30:02.167Z,146.52
2023-03-04T04:32:28.804Z,143.02
2023-03-04T04:34:55.384Z,142.27
2023-03-04T04:37:22.012Z,145.35
2023-03-04T04:39:48.632Z,143.90
2023-03-04T04:42:15.239Z,140.43
2023-03-04T04:44:41.766Z,148.77
2023-03-04T04:47:09.980Z,144.35
2023-03-04T04:49:36.518Z,136.00
2023-03-04T04:52:03.353Z,146.93
2023-03-04T04:54:30.012Z,147.15
2023-03-04T04:56:56.595Z,149.20
2023-03-04T04:59:23.424Z,153.38
2023-03-04T05:01:50.087Z,142.30
2023-03-04T05:04:16.682Z,153.15
2023-03-04T05:06:43.358Z,133.93
2023-03-04T05:09:09.944Z,154.80
2023-03-04T05:11:36.512Z,146.25
2023-03-04T05:14:03.222Z,141.38
2023-03-04T05:16:29.743Z,157.93
2023-03-04T05:18:56.302Z,139.43
2023-03-04T05:21:22.954Z,147.38
2023-03-04T05:23:49.493Z,146.00
2023-03-04T05:26:17.623Z,138.25
2023-03-04T05:28:44.946Z,131.82
2023-03-04T05:31:11.639Z,144.40
2023-03-04T05:33:38.605Z,137.85
2023-03-04T05:36:07.156Z,145.00
2023-03-04T05:38:34.452Z,137.77
2023-03-04T05:41:04.161Z,138.88
2023-03-04T05:43:31.851Z,135.00
2023-03-04T05:45:58.393Z,128.32
2023-03-04T05:48:25.040Z,115.80
2023-03-04T05:51:00.804Z,115.75
2023-03-04T05:53:28.603Z,114.32
2023-03-04T05:55:55.536Z,88.63
2023-03-04T05:58:22.873Z,74.85
2023-03-04T06:00:49.400Z,77.75
2023-03-04T06:03:18.284Z,69.28
2023-03-04T06:05:45.312Z,74.38
2023-03-04T06:08:12.868Z,75.47
2023-03-04T06:10:40.944Z,71.22
2023-03-04T06:13:08.652Z,71.50
2023-03-04T06:15:35.225Z,60.58
2023-03-04T06:18:02.293Z,64.00
2023-03-04T06:20:29.078Z,62.88
2023-03-04T06:22:55.626Z,68.15
2023-03-04T06:25:23.316Z,68.28
2023-03-04T06:27:50.876Z,64.97
2023-03-04T06:30:18.552Z,60.38
2023-03-04T06:32:46.209Z,64.70
2023-03-04T06:35:14.757Z,66.28
2023-03-04T06:37:41.845Z,58.67
2023-03-04T06:40:10.571Z,66.68
2023-03-04T06:42:37.457Z,64.13
2023-03-04T06:45:04.992Z,60.67
2023-03-04T06:47:31.650Z,58.60
2023-03-04T06:49:58.369Z,62.20
2023-03-04T06:52:25.183Z,60.78
2023-03-04T06:54:51.768Z,64.18
2023-03-04T06:57:18.402Z,57.53
2023-03-04T06:59:44.957Z,58.40
2023-03-04T07:02:12.880Z,62.15
2023-03-04T07:04:41.276Z,61.22
2023-03-04T07:07:07.854Z,63.22
2023-03-04T07:09:34.376Z,60.53
2023-03-04T07:12:01.083Z,58.58
2023-03-04T07:14:28.064Z,60.03
2023-03-04T07:16:54.900Z,56.80
2023-03-04T07:19:21.862Z,57.03
2023-03-04T07:21:48.483Z,58.70
2023-03-04T07:24:15.354Z,58.63
2023-03-04T07:26:41.978Z,60.30
2023-03-04T07:29:08.508Z,52.22
2023-03-04T07:31:36.819Z,58.05
2023-03-04T07:34:06.491Z,50.38
2023-03-04T07:36:35.873Z,54.08
2023-03-04T07:39:03.716Z,50.45
2023-03-04T07:41:31.061Z,51.65
2023-03-04T07:43:58.684Z,50.53
2023-03-04T07:46:25.732Z,48.20
2023-03-04T07:48:52.284Z,54.30
2023-03-04T07:51:20.999Z,50.25
2023-03-04T07:53:49.951Z,53.25
2023-03-04T07:56:23.741Z,45.67
2023-03-04T07:58:52.398Z,43.05
2023-03-04T08:01:31.125Z,41.00
2023-03-04T08:03:58.215Z,37.88
2023-03-04T08:06:26.899Z,38.70
2023-03-04T08:09:03.260Z,33.40
2023-03-04T08:11:31.118Z,33.63
2023-03-04T08:13:58.183Z,35.22
2023-03-04T08:16:25.775Z,32.60
2023-03-04T08:18:56.841Z,25.52
2023-03-04T08:21:25.626Z,29.43
2023-03-04T08:23:53.190Z,28.65
2023-03-04T08:26:34.188Z,23.30
2023-03-04T08:29:02.546Z,22.98
2023-03-04T08:31:29.201Z,24.23
2023-03-04T08:33:56.641Z,25.58
2023-03-04T08:36:23.236Z,26.23
2023-03-04T08:38:49.777Z,26.48
2023-03-04T08:41:16.915Z,21.10
2023-03-04T08:43:44.175Z,24.05
2023-03-04T08:46:10.830Z,27.98
2023-03-04T08:48:38.350Z,28.23
2023-03-04T08:51:10.135Z,25.58
2023-03-04T08:53:37.893Z,27.08
2023-03-04T08:56:05.553Z,22.75
2023-03-04T08:58:32.108Z,25.05
2023-03-04T09:01:00.062Z,21.80
2023-03-04T09:03:26.640Z,26.35
2023-03-04T09:05:53.376Z,32.30
2023-03-04T09:08:19.948Z,33.13
2023-03-04T09:10:47.149Z,25.75
2023-03-04T09:13:17.053Z,31.45
2023-03-04T09:15:48.645Z,23.85
2023-03-04T09:18:15.823Z,22.20
2023-03-04T09:20:42.443Z,26.67
2023-03-04T09:23:09.745Z,26.70
2023-03-04T09:25:37.976Z,30.63
2023-03-04T09:28:06.196Z,29.90
2023-03-04T09:30:34.326Z,25.50
2023-03-04T09:33:01.260Z,29.75
2023-03-04T09:35:30.080Z,30.65
2023-03-04T09:37:58.880Z,26.67
2023-03-04T09:40:29.840Z,23.55
2023-03-04T09:43:06.416Z,27.70
2023-03-04T09:45:40.172Z,27.60
2023-03-04T09:48:10.394Z,31.73
2023-03-04T09:50:44.100Z,27.60
2023-03-04T09:53:20.079Z,26.60
2023-03-04T09:55:50.362Z,27.30
2023-03-04T09:58:25.546Z,32.33
2023-03-04T10:01:02.355Z,30.63
2023-03-04T10:03:48.369Z,32.70
2023-03-04T10:06:21.328Z,38.25
2023-03-04T10:09:02.660Z,30.20
2023-03-04T10:11:40.016Z,26.25
2023-03-04T10:14:33.670Z,27.77
2023-03-04T10:17:09.600Z,26.98
2023-03-04T10:19:41.348Z,28.02
2023-03-04T10:22:27.007Z,24.48
2023-03-04T10:24:58.923Z,35.67
2023-03-04T10:29:52.656Z,29.77
2023-03-04T10:32:20.784Z,29.58
2023-03-04T10:34:47.786Z,27.60
2023-03-04T10:37:14.338Z,25.17
2023-03-04T10:39:43.788Z,29.40
2023-03-04T10:42:16.543Z,29.05
2023-03-04T10:45:03.567Z,23.85
2023-03-04T10:47:33.149Z,23.52
2023-03-04T10:50:05.559Z,23.20
2023-03-04T10:52:46.632Z,24.85
2023-03-04T10:55:28.734Z,29.08
2023-03-04T11:00:26.721Z,25.33
2023-03-04T11:02:53.291Z,24.05
2023-03-04T11:05:21.631Z,26.98
2023-03-04T11:07:56.979Z,30.23
2023-03-04T11:10:25.443Z,28.13
2023-03-04T11:13:00.474Z,25.45
2023-03-04T11:15:29.382Z,22.80
2023-03-04T11:18:10.463Z,21.38
2023-03-04T11:20:41.582Z,26.48
2023-03-04T11:23:17.014Z,31.13
2023-03-04T11:26:00.179Z,25.90
2023-03-04T11:28:45.106Z,27.08
2023-03-04T11:31:20.458Z,27.77
2023-03-04T11:34:00.436Z,24.45
2023-03-04T11:36:32.980Z,25.88
2023-03-04T11:39:01.813Z,28.27
2023-03-04T11:41:41.627Z,19.95
2023-03-04T11:44:09.227Z,23.23
2023-03-04T11:47:28.863Z,20.25
2023-03-04T11:50:27.257Z,26.50
2023-03-04T11:53:02.586Z,21.33
2023-03-04T11:55:38.220Z,24.17
2023-03-04T11:58:16.444Z,20.85
2023-03-04T12:00:52.929Z,25.38
2023-03-04T12:03:27.692Z,19.85
2023-03-04T12:06:02.991Z,28.60
2023-03-04T12:08:47.745Z,27.75
2023-03-04T12:11:26.084Z,24.42
2023-03-04T12:14:20.974Z,31.58
2023-03-04T12:17:34.636Z,25.80
2023-03-04T12:20:01.102Z,29.33
2023-03-04T12:22:30.365Z,25.48
2023-03-04T12:25:24.612Z,22.10
2023-03-04T12:28:00.108Z,27.23
2023-03-04T12:30:41.514Z,21.73
2023-03-04T12:33:14.270Z,19.30
2023-03-04T12:35:55.616Z,23.73
2023-03-04T12:39:00.790Z,28.75
2023-03-04T12:42:08.161Z,20.27
2023-03-04T12:45:00.779Z,22.42
2023-03-04T12:47:35.706Z,29.55
2023-03-04T12:50:11.083Z,23.02
2023-03-04T12:52:48.479Z,29.30
2023-03-04T12:55:19.012Z,29.25
2023-03-04T12:57:46.305Z,18.08
2023-03-04T13:00:30.819Z,23.10
2023-03-04T13:03:46.979Z,22.58
2023-03-04T13:06:32.278Z,19.17
2023-03-04T13:09:30.062Z,28.10
2023-03-04T13:12:22.433Z,21.45
2023-03-04T13:15:07.462Z,20.45
2023-03-04T13:17:36.992Z,20.90
2023-03-04T13:20:20.472Z,26.38
2023-03-04T13:23:06.641Z,22.60
2023-03-04T13:25:39.972Z,28.67
2023-03-04T13:28:13.523Z,24.23
2023-03-04T13:30:59.989Z,16.95
2023-03-04T13:33:26.546Z,22.48
2023-03-04T13:36:04.220Z,19.90
2023-03-04T13:38:34.891Z,24.58
2023-03-04T13:41:16.729Z,22.27
2023-03-04T13:43:56.848Z,25.23
2023-03-04T13:46:24.101Z,22.23
2023-03-04T13:48:50.825Z,19.92
2023-03-04T13:51:29.414Z,19.33
2023-03-04T13:53:59.820Z,23.65
2023-03-04T13:56:37.600Z,18.95
2023-03-04T13:59:07.250Z,20.30
2023-03-04T14:01:42.889Z,17.95
2023-03-04T14:04:25.317Z,18.17
2023-03-04T14:06:54.344Z,22.52
2023-03-04T14:09:25.162Z,17.33
2023-03-04T14:11:54.216Z,18.38
2023-03-04T14:14:25.192Z,21.27
2023-03-04T14:17:01.386Z,18.20
2023-03-04T14:19:30.975Z,16.65
2023-03-04T14:22:02.303Z,14.38
2023-03-04T14:24:30.934Z,15.73
2023-03-04T14:27:14.364Z,19.30
2023-03-04T14:29:40.902Z,14.68
2023-03-04T14:32:08.247Z,12.95
2023-03-04T14:34:38.302Z,17.33
2023-03-04T14:37:21.650Z,21.60
2023-03-04T14:39:51.749Z,15.68
2023-03-04T14:42:21.639Z,15.90
2023-03-04T14:44:51.031Z,14.55
2023-03-04T14:47:20.888Z,14.38
2023-03-04T14:49:47.846Z,15.93
2023-03-04T14:52:34.656Z,15.93
2023-03-04T14:55:22.432Z,16.88
2023-03-04T14:57:58.586Z,14.00
2023-03-04T15:00:29.617Z,13.73
2023-03-04T15:02:58.974Z,14.80
2023-03-04T15:05:32.768Z,11.65
2023-03-04T15:08:07.086Z,14.93
2023-03-04T15:10:36.055Z,18.58
2023-03-04T15:13:06.720Z,14.27
2023-03-04T15:15:40.294Z,15.27
2023-03-04T15:18:26.619Z,12.88
2023-03-04T15:20:59.171Z,13.45
2023-03-04T15:23:27.243Z,12.07
2023-03-04T15:25:56.602Z,18.35
2023-03-04T15:28:24.691Z,14.52
2023-03-04T15:30:51.818Z,19.00
2023-03-04T15:33:21.048Z,15.90
2023-03-04T15:35:57.193Z,12.45
2023-03-04T15:38:25.359Z,14.40
2023-03-04T15:40:54.473Z,8.60
2023-03-04T15:43:23.018Z,16.40
2023-03-04T15:45:51.151Z,12.32
2023-03-04T15:48:18.863Z,11.60
2023-03-04T15:50:56.085Z,17.70
2023-03-04T15:53:39.819Z,15.63
2023-03-04T15:56:12.163Z,18.55
2023-03-04T15:58:39.468Z,12.20
2023-03-04T16:01:06.356Z,11.63
2023-03-04T16:03:33.171Z,16.65
2023-03-04T16:06:00.079Z,13.98
2023-03-04T16:08:26.819Z,9.35
2023-03-04T16:10:54.236Z,9.77
2023-03-04T16:13:23.499Z,10.63
2023-03-04T16:15:50.240Z,11.65
2023-03-04T16:18:17.607Z,11.90
2023-03-04T16:20:49.657Z,14.52
2023-03-04T16:25:49.550Z,16.70
2023-03-04T16:28:16.544Z,9.52
2023-03-04T16:30:43.602Z,8.95
2023-03-04T16:33:11.475Z,10.35
2023-03-04T16:35:39.639Z,13.10
2023-03-04T16:38:18.776Z,8.68
2023-03-04T16:40:45.321Z,10.07
2023-03-04T16:43:13.942Z,13.90
2023-03-04T16:45:41.375Z,17.08
2023-03-04T16:48:07.985Z,15.95
2023-03-04T16:50:36.844Z,15.45
2023-03-04T16:53:04.506Z,29.23
2023-03-04T16:55:31.854Z,15.98
2023-03-04T16:57:58.586Z,10.48
2023-03-04T17:00:28.026Z,13.65
2023-03-04T17:02:57.585Z,8.35
2023-03-04T17:05:26.676Z,11.80
2023-03-04T17:07:53.296Z,10.32
2023-03-04T17:10:20.998Z,10.65
2023-03-04T17:12:47.905Z,7.32
2023-03-04T17:15:15.405Z,11.18
2023-03-04T17:17:43.236Z,13.70
2023-03-04T17:20:13.642Z,10.35
2023-03-04T17:22:40.740Z,11.13
2023-03-04T17:25:08.027Z,11.43
2023-03-04T17:27:34.800Z,9.65
2023-03-04T17:30:01.488Z,9.77
2023-03-04T17:32:28.581Z,8.35
2023-03-04T17:34:55.849Z,12.73
2023-03-04T17:37:22.896Z,8.57
2023-03-04T17:39:49.494Z,9.43
2023-03-04T17:42:16.198Z,7.63
2023-03-04T17:44:42.937Z,10.35
2023-03-04T17:47:09.521Z,8.90
2023-03-04T17:49:36.160Z,9.55
2023-03-04T17:52:04.325Z,10.65
2023-03-04T17:54:32.056Z,8.43
2023-03-04T17:56:58.685Z,11.13
2023-03-04T17:59:25.208Z,14.00
2023-03-04T18:01:54.220Z,9.27
2023-03-04T18:04:21.278Z,14.40
2023-03-04T18:06:48.063Z,18.73
2023-03-04T18:09:14.866Z,8.27
2023-03-04T18:11:42.451Z,10.50
2023-03-04T18:14:09.170Z,11.10
2023-03-04T18:16:35.795Z,10.68
2023-03-04T18:19:02.970Z,10.95
2023-03-04T18:21:30.472Z,12.20
2023-03-04T18:23:57.908Z,10.10
2023-03-04T18:26:25.604Z,11.60
2023-03-04T18:28:53.264Z,8.65
2023-03-04T18:31:20.953Z,8.70
2023-03-04T18:33:47.692Z,8.50
2023-03-04T18:36:15.117Z,7.50
2023-03-04T18:38:42.129Z,8.02
2023-03-04T18:41:11.803Z,9.65
2023-03-04T18:43:39.022Z,11.25
2023-03-04T18:46:20.297Z,10.30
2023-03-04T18:48:50.359Z,10.40
2023-03-04T18:51:16.999Z,7.53
2023-03-04T18:53:43.609Z,9.63
2023-03-04T18:56:20.932Z,11.38
2023-03-04T18:58:50.412Z,7.97
2023-03-04T19:01:20.599Z,11.65
2023-03-04T19:03:48.108Z,12.38
2023-03-04T19:06:15.136Z,14.23
2023-03-04T19:08:41.671Z,10.55
2023-03-04T19:11:08.216Z,9.77
2023-03-04T19:13:34.856Z,13.18
2023-03-04T19:16:01.414Z,13.43
2023-03-04T19:18:29.207Z,9.40
2023-03-04T19:20:58.585Z,12.77
2023-03-04T19:23:25.089Z,15.85
2023-03-04T19:25:51.602Z,13.73
2023-03-04T19:28:18.907Z,13.68
2023-03-04T19:30:45.646Z,13.57
2023-03-04T19:33:12.261Z,13.30
2023-03-04T19:35:43.270Z,9.88
2023-03-04T19:38:09.831Z,9.10
2023-03-04T19:40:40.445Z,6.55
2023-03-04T19:43:08.062Z,4.97
2023-03-04T19:45:34.983Z,6.13
2023-03-04T19:48:03.091Z,4.43
2023-03-04T19:50:29.958Z,4.95
2023-03-04T19:52:56.684Z,6.53
2023-03-04T19:55:23.254Z,6.68
2023-03-04T19:57:49.867Z,6.25
2023-03-04T20:00:16.906Z,5.05
2023-03-04T20:02:45.563Z,7.45
2023-03-04T20:05:13.539Z,5.57
2023-03-04T20:07:40.517Z,5.78
2023-03-04T20:10:07.894Z,5.45
2023-03-04T20:12:36.274Z,5.13
2023-03-04T20:15:05.996Z,4.40
2023-03-04T20:17:32.527Z,7.25
2023-03-04T20:19:59.040Z,5.05
2023-03-04T20:22:25.707Z,5.10
2023-03-04T20:24:54.867Z,5.55
2023-03-04T20:27:21.496Z,3.72
2023-03-04T20:29:49.026Z,10.15
2023-03-04T20:32:15.738Z,5.65
2023-03-04T20:34:42.330Z,5.78
2023-03-04T20:37:08.954Z,5.47
2023-03-04T20:39:35.468Z,4.55
2023-03-04T20:42:01.991Z,6.90
2023-03-04T20:44:28.544Z,5.78
2023-03-04T20:46:55.682Z,6.97
2023-03-04T20:49:26.600Z,3.47
2023-03-04T20:52:00.693Z,5.93
2023-03-04T20:54:27.296Z,7.90
2023-03-04T20:56:53.859Z,7.88
2023-03-04T20:59:20.478Z,5.10
2023-03-04T21:01:50.022Z,5.47
2023-03-04T21:04:17.577Z,5.18
2023-03-04T21:06:45.245Z,8.30
2023-03-04T21:09:14.872Z,8.05
2023-03-04T21:11:42.455Z,7.47
2023-03-04T21:14:16.593Z,6.55
2023-03-04T21:16:43.474Z,8.75
2023-03-04T21:19:16.962Z,6.07
2023-03-04T21:21:44.311Z,4.40
2023-03-04T21:24:14.533Z,3.60
2023-03-04T21:26:45.144Z,7.47
2023-03-04T21:29:12.770Z,8.57
2023-03-04T21:31:43.297Z,6.28
2023-03-04T21:34:25.189Z,5.90
2023-03-04T21:36:51.804Z,7.72
2023-03-04T21:39:23.123Z,7.35
2023-03-04T21:41:50.365Z,5.32
2023-03-04T21:44:28.086Z,8.88
2023-03-04T21:46:56.546Z,7.68
2023-03-04T21:49:23.125Z,7.38
2023-03-04T21:51:49.666Z,4.13
2023-03-04T21:54:16.519Z,5.60
2023-03-04T21:56:43.272Z,7.88
2023-03-04T21:59:13.095Z,5.65
2023-03-04T22:01:39.812Z,4.85
2023-03-04T22:04:06.618Z,5.88
2023-03-04T22:06:33.817Z,5.90
2023-03-04T22:09:02.260Z,8.10
2023-03-04T22:11:30.132Z,8.13
2023-03-04T22:13:59.773Z,7.45
2023-03-04T22:16:27.117Z,8.45
2023-03-04T22:18:53.684Z,6.38
2023-03-04T22:21:21.911Z,8.32
2023-03-04T22:23:48.717Z,7.80
2023-03-04T22:26:21.181Z,10.40
2023-03-04T22:28:47.976Z,8.20
2023-03-04T22:31:29.783Z,6.43
2023-03-04T22:34:16.723Z,6.32
2023-03-04T22:36:46.155Z,9.48
2023-03-04T22:39:16.144Z,7.38
2023-03-04T22:41:42.722Z,7.75
2023-03-04T22:44:09.275Z,10.57
2023-03-04T22:46:38.282Z,7.05
2023-03-04T22:49:09.665Z,12.00
2023-03-04T22:51:37.383Z,8.20
2023-03-04T22:54:04.241Z,8.52
2023-03-04T22:56:30.831Z,8.50
2023-03-04T22:58:57.354Z,8.75
2023-03-04T23:01:24.525Z,8.55
2023-03-04T23:03:51.105Z,15.43
2023-03-04T23:06:25.161Z,8.02
2023-03-04T23:08:52.810Z,9.35
2023-03-04T23:11:26.347Z,11.18
2023-03-04T23:13:54.535Z,11.07
2023-03-04T23:16:22.433Z,14.88
2023-03-04T23:18:49.671Z,10.20
2023-03-04T23:21:20.195Z,10.10
2023-03-04T23:23:47.715Z,12.73
2023-03-04T23:26:18.465Z,14.00
2023-03-04T23:28:45.358Z,11.93
2023-03-04T23:31:14.754Z,11.35
2023-03-04T23:33:46.175Z,12.50
2023-03-04T23:36:15.576Z,13.48
2023-03-04T23:38:47.083Z,15.07
2023-03-04T23:41:15.962Z,16.05
2023-03-04T23:43:42.555Z,11.93
2023-03-04T23:46:11.590Z,14.52
2023-03-04T23:48:38.976Z,17.42
2023-03-04T23:51:05.693Z,18.02
2023-03-04T23:53:34.435Z,15.75
2023-03-04T23:56:01.347Z,13.90
2023-03-04T23:58:28.010Z,19.10
